sensor_id;sensor_type;location;lat;lon;timestamp;pressure;altitude;pressure_sealevel;temperature;humidity
69171;BME280;56279;47.902;12.308;2023-04-08T00:01:14;95412.47;;;4.79;84.90
69171;BME280;56279;47.902;12.308;2023-04-08T00:03:19;95415.34;;;4.78;85.43
69171;BME280;56279;47.902;12.308;2023-04-08T00:05:21;95419.50;;;4.79;85.28
69171;BME280;56279;47.902;12.308;2023-04-08T00:07:22;95415.34;;;4.78;85.20
69171;BME280;56279;47.902;12.308;2023-04-08T00:09:24;95417.94;;;4.78;85.44
69171;BME280;56279;47.902;12.308;2023-04-08T00:11:25;95414.53;;;4.77;85.54
69171;BME280;56279;47.902;12.308;2023-04-08T00:13:26;95428.41;;;4.78;85.45
69171;BME280;56279;47.902;12.308;2023-04-08T00:15:29;95422.38;;;4.77;85.88
69171;BME280;56279;47.902;12.308;2023-04-08T00:17:30;95424.19;;;4.77;85.50
69171;BME280;56279;47.902;12.308;2023-04-08T00:19:32;95425.22;;;4.76;86.07
69171;BME280;56279;47.902;12.308;2023-04-08T00:21:33;95426.81;;;4.77;85.88
69171;BME280;56279;47.902;12.308;2023-04-08T00:23:37;95424.75;;;4.79;86.06
69171;BME280;56279;47.902;12.308;2023-04-08T00:25:39;95419.03;;;4.82;86.15
69171;BME280;56279;47.902;12.308;2023-04-08T00:27:40;95420.06;;;4.81;86.04
69171;BME280;56279;47.902;12.308;2023-04-08T00:29:41;95420.06;;;4.81;86.15
69171;BME280;56279;47.902;12.308;2023-04-08T00:31:45;95422.66;;;4.81;86.15
69171;BME280;56279;47.902;12.308;2023-04-08T00:33:48;95421.91;;;4.80;85.85
69171;BME280;56279;47.902;12.308;2023-04-08T00:35:49;95417.16;;;4.77;86.32
69171;BME280;56279;47.902;12.308;2023-04-08T00:37:52;95424.44;;;4.75;86.63
69171;BME280;56279;47.902;12.308;2023-04-08T00:39:54;95418.06;;;4.71;86.54
69171;BME280;56279;47.902;12.308;2023-04-08T00:41:55;95421.97;;;4.69;86.84
69171;BME280;56279;47.902;12.308;2023-04-08T00:43:58;95429.25;;;4.67;86.52
69171;BME280;56279;47.902;12.308;2023-04-08T00:46:01;95423.47;;;4.65;86.92
69171;BME280;56279;47.902;12.308;2023-04-08T00:48:04;95425.53;;;4.63;86.96
69171;BME280;56279;47.902;12.308;2023-04-08T00:50:08;95424.19;;;4.60;87.18
69171;BME280;56279;47.902;12.308;2023-04-08T00:52:10;95427.59;;;4.61;87.11
69171;BME280;56279;47.902;12.308;2023-04-08T00:54:13;95432.81;;;4.61;86.99
69171;BME280;56279;47.902;12.308;2023-04-08T00:56:15;95429.19;;;4.62;87.06
69171;BME280;56279;47.902;12.308;2023-04-08T00:58:16;95425.06;;;4.66;87.42
69171;BME280;56279;47.902;12.308;2023-04-08T01:00:18;95435.59;;;4.71;87.10
69171;BME280;56279;47.902;12.308;2023-04-08T01:04:56;95429.31;;;4.72;86.47
69171;BME280;56279;47.902;12.308;2023-04-08T01:07:14;95432.19;;;4.70;86.64
69171;BME280;56279;47.902;12.308;2023-04-08T01:09:18;95428.78;;;4.70;86.58
69171;BME280;56279;47.902;12.308;2023-04-08T01:11:21;95430.84;;;4.68;86.96
69171;BME280;56279;47.902;12.308;2023-04-08T01:13:25;95429.25;;;4.67;87.01
69171;BME280;56279;47.902;12.308;2023-04-08T01:15:30;95428.94;;;4.63;86.75
69171;BME280;56279;47.902;12.308;2023-04-08T01:17:34;95431.00;;;4.61;86.82
69171;BME280;56279;47.902;12.308;2023-04-08T01:19:39;95432.81;;;4.61;86.82
69171;BME280;56279;47.902;12.308;2023-04-08T01:21:46;95424.44;;;4.59;87.06
69171;BME280;56279;47.902;12.308;2023-04-08T01:24:09;95434.53;;;4.55;87.13
69171;BME280;56279;47.902;12.308;2023-04-08T01:26:22;95425.69;;;4.56;86.96
69171;BME280;56279;47.902;12.308;2023-04-08T01:28:28;95431.22;;;4.60;87.04
69171;BME280;56279;47.902;12.308;2023-04-08T01:30:34;95429.19;;;4.62;87.21
69171;BME280;56279;47.902;12.308;2023-04-08T01:32:43;95423.72;;;4.63;87.03
69171;BME280;56279;47.902;12.308;2023-04-08T01:34:46;95430.84;;;4.68;87.02
69171;BME280;56279;47.902;12.308;2023-04-08T01:36:48;95430.38;;;4.71;86.97
69171;BME280;56279;47.902;12.308;2023-04-08T01:38:56;95419.66;;;4.72;87.23
69171;BME280;56279;47.902;12.308;2023-04-08T01:40:59;95421.81;;;4.75;86.74
69171;BME280;56279;47.902;12.308;2023-04-08T01:43:01;95430.22;;;4.77;87.37
69171;BME280;56279;47.902;12.308;2023-04-08T01:45:05;95426.34;;;4.80;86.94
69171;BME280;56279;47.902;12.308;2023-04-08T01:47:09;95433.94;;;4.81;86.82
69171;BME280;56279;47.902;12.308;2023-04-08T01:49:14;95426.63;;;4.83;86.94
69171;BME280;56279;47.902;12.308;2023-04-08T01:51:18;95435.81;;;4.86;87.12
69171;BME280;56279;47.902;12.308;2023-04-08T01:53:21;95424.09;;;4.88;86.70
69171;BME280;56279;47.902;12.308;2023-04-08T01:55:27;95428.31;;;4.89;86.64
69171;BME280;56279;47.902;12.308;2023-04-08T01:57:31;95431.72;;;4.90;86.90
69171;BME280;56279;47.902;12.308;2023-04-08T01:59:37;95431.72;;;4.90;86.86
69171;BME280;56279;47.902;12.308;2023-04-08T02:01:42;95428.88;;;4.92;87.08
69171;BME280;56279;47.902;12.308;2023-04-08T02:03:45;95428.63;;;4.93;86.98
69171;BME280;56279;47.902;12.308;2023-04-08T02:05:48;95431.00;;;4.95;86.98
69171;BME280;56279;47.902;12.308;2023-04-08T02:07:51;95429.97;;;4.96;86.96
69171;BME280;56279;47.902;12.308;2023-04-08T02:09:52;95429.72;;;4.97;87.03
69171;BME280;56279;47.902;12.308;2023-04-08T02:11:53;95434.94;;;4.97;86.92
69171;BME280;56279;47.902;12.308;2023-04-08T02:13:59;95426.88;;;4.99;86.86
69171;BME280;56279;47.902;12.308;2023-04-08T02:16:52;95434.94;;;4.97;86.59
69171;BME280;56279;47.902;12.308;2023-04-08T02:19:24;95423.72;;;4.97;86.57
69171;BME280;56279;47.902;12.308;2023-04-08T02:21:45;95429.50;;;4.99;86.61
69171;BME280;56279;47.902;12.308;2023-04-08T02:23:49;95423.22;;;5.00;86.95
69171;BME280;56279;47.902;12.308;2023-04-08T02:25:53;95427.44;;;5.01;86.77
69171;BME280;56279;47.902;12.308;2023-04-08T02:27:56;95430.84;;;5.01;86.89
69171;BME280;56279;47.902;12.308;2023-04-08T02:30:05;95428.44;;;5.00;86.84
69171;BME280;56279;47.902;12.308;2023-04-08T02:32:12;95432.41;;;5.02;86.95
69171;BME280;56279;47.902;12.308;2023-04-08T02:34:16;95428.22;;;5.01;87.10
69171;BME280;56279;47.902;12.308;2023-04-08T02:36:18;95431.41;;;5.03;86.94
69171;BME280;56279;47.902;12.308;2023-04-08T02:38:20;95432.97;;;5.04;86.94
69171;BME280;56279;47.902;12.308;2023-04-08T02:40:23;95432.97;;;5.04;87.11
69171;BME280;56279;47.902;12.308;2023-04-08T02:42:25;95435.56;;;5.04;86.78
69171;BME280;56279;47.902;12.308;2023-04-08T02:44:28;95434.56;;;5.05;87.04
69171;BME280;56279;47.902;12.308;2023-04-08T02:46:33;95428.53;;;5.05;87.25
69171;BME280;56279;47.902;12.308;2023-04-08T02:48:40;95437.97;;;5.06;87.26
69171;BME280;56279;47.902;12.308;2023-04-08T02:50:46;95431.94;;;5.05;87.46
69171;BME280;56279;47.902;12.308;2023-04-08T02:52:47;95435.56;;;5.04;87.05
69171;BME280;56279;47.902;12.308;2023-04-08T02:54:50;95429.31;;;5.05;87.24
69171;BME280;56279;47.902;12.308;2023-04-08T02:56:52;95435.34;;;5.06;86.75
69171;BME280;56279;47.902;12.308;2023-04-08T02:58:54;95442.97;;;5.07;87.12
69171;BME280;56279;47.902;12.308;2023-04-08T03:01:00;95448.19;;;5.07;87.16
69171;BME280;56279;47.902;12.308;2023-04-08T03:03:02;95436.94;;;5.07;86.86
69171;BME280;56279;47.902;12.308;2023-04-08T03:05:09;95433.75;;;5.05;87.38
69171;BME280;56279;47.902;12.308;2023-04-08T03:07:14;95433.75;;;5.05;87.41
69171;BME280;56279;47.902;12.308;2023-04-08T03:09:19;95438.44;;;5.03;87.17
69171;BME280;56279;47.902;12.308;2023-04-08T03:11:20;95447.34;;;5.02;87.49
69171;BME280;56279;47.902;12.308;2023-04-08T03:13:22;95443.38;;;4.99;87.57
69171;BME280;56279;47.902;12.308;2023-04-08T03:15:24;95446.00;;;4.99;87.44
69171;BME280;56279;47.902;12.308;2023-04-08T03:17:25;95444.38;;;4.98;87.92
69171;BME280;56279;47.902;12.308;2023-04-08T03:19:27;95445.66;;;4.96;87.68
69171;BME280;56279;47.902;12.308;2023-04-08T03:21:28;95445.09;;;4.94;87.85
69171;BME280;56279;47.902;12.308;2023-04-08T03:23:32;95445.34;;;4.92;87.75
69171;BME280;56279;47.902;12.308;2023-04-08T03:25:35;95446.13;;;4.93;88.07
69171;BME280;56279;47.902;12.308;2023-04-08T03:27:38;95439.88;;;4.94;88.04
69171;BME280;56279;47.902;12.308;2023-04-08T03:29:40;95450.09;;;4.95;88.25
69171;BME280;56279;47.902;12.308;2023-04-08T03:31:41;95447.81;;;4.99;87.98
69171;BME280;56279;47.902;12.308;2023-04-08T03:33:43;95448.91;;;5.03;87.81
69171;BME280;56279;47.902;12.308;2023-04-08T03:35:46;95445.03;;;5.05;87.83
69171;BME280;56279;47.902;12.308;2023-04-08T03:37:47;95450.59;;;5.09;87.74
69171;BME280;56279;47.902;12.308;2023-04-08T03:39:49;95444.06;;;5.11;87.79
69171;BME280;56279;47.902;12.308;2023-04-08T03:41:52;95448.81;;;5.14;87.52
69171;BME280;56279;47.902;12.308;2023-04-08T03:43:53;95446.75;;;5.16;88.02
69171;BME280;56279;47.902;12.308;2023-04-08T03:45:55;95446.28;;;5.19;87.40
69171;BME280;56279;47.902;12.308;2023-04-08T03:48:00;95454.41;;;5.23;87.01
69171;BME280;56279;47.902;12.308;2023-04-08T03:50:02;95450.31;;;5.27;87.55
69171;BME280;56279;47.902;12.308;2023-04-08T03:52:07;95454.81;;;5.31;87.15
69171;BME280;56279;47.902;12.308;2023-04-08T03:54:09;95449.13;;;5.34;87.36
69171;BME280;56279;47.902;12.308;2023-04-08T03:56:11;95451.00;;;5.39;87.23
69171;BME280;56279;47.902;12.308;2023-04-08T03:58:14;95454.72;;;5.43;87.21
69171;BME280;56279;47.902;12.308;2023-04-08T04:00:17;95459.25;;;5.47;87.19
69171;BME280;56279;47.902;12.308;2023-04-08T04:02:19;95456.16;;;5.50;87.00
69171;BME280;56279;47.902;12.308;2023-04-08T04:04:22;95458.50;;;5.52;86.84
69171;BME280;56279;47.902;12.308;2023-04-08T04:06:25;95456.19;;;5.55;86.85
69171;BME280;56279;47.902;12.308;2023-04-08T04:08:28;95459.38;;;5.57;87.03
69171;BME280;56279;47.902;12.308;2023-04-08T04:10:30;95462.00;;;5.57;86.79
69171;BME280;56279;47.902;12.308;2023-04-08T04:12:38;95459.38;;;5.57;86.85
69171;BME280;56279;47.902;12.308;2023-04-08T04:14:40;95472.47;;;5.57;86.63
69171;BME280;56279;47.902;12.308;2023-04-08T04:16:41;95463.56;;;5.58;86.64
69171;BME280;56279;47.902;12.308;2023-04-08T04:18:43;95465.97;;;5.60;86.67
69171;BME280;56279;47.902;12.308;2023-04-08T04:20:44;95468.59;;;5.60;86.82
69171;BME280;56279;47.902;12.308;2023-04-08T04:22:45;95475.38;;;5.61;86.25
69171;BME280;56279;47.902;12.308;2023-04-08T04:24:48;95476.97;;;5.62;86.35
69171;BME280;56279;47.902;12.308;2023-04-08T04:26:51;95475.13;;;5.63;86.78
69171;BME280;56279;47.902;12.308;2023-04-08T04:28:53;95480.16;;;5.64;86.48
69171;BME280;56279;47.902;12.308;2023-04-08T04:30:55;95474.91;;;5.64;86.25
69171;BME280;56279;47.902;12.308;2023-04-08T04:32:56;95479.88;;;5.66;86.35
69171;BME280;56279;47.902;12.308;2023-04-08T04:34:58;95478.06;;;5.66;86.21
69171;BME280;56279;47.902;12.308;2023-04-08T04:37:00;95477.59;;;5.69;86.24
69171;BME280;56279;47.902;12.308;2023-04-08T04:39:03;95485.19;;;5.71;86.07
69171;BME280;56279;47.902;12.308;2023-04-08T04:41:05;95482.09;;;5.74;86.15
69171;BME280;56279;47.902;12.308;2023-04-08T04:43:07;95485.50;;;5.74;85.93
69171;BME280;56279;47.902;12.308;2023-04-08T04:45:09;95486.84;;;5.77;85.90
69171;BME280;56279;47.902;12.308;2023-04-08T04:47:13;95491.59;;;5.80;85.88
69171;BME280;56279;47.902;12.308;2023-04-08T04:49:16;95486.91;;;5.82;85.70
69171;BME280;56279;47.902;12.308;2023-04-08T04:51:19;95493.75;;;5.83;85.68
69171;BME280;56279;47.902;12.308;2023-04-08T04:53:21;95496.34;;;5.83;85.53
69171;BME280;56279;47.902;12.308;2023-04-08T04:55:23;95490.56;;;5.81;85.43
69171;BME280;56279;47.902;12.308;2023-04-08T04:57:24;95495.50;;;5.77;85.69
69171;BME280;56279;47.902;12.308;2023-04-08T04:59:26;95493.94;;;5.76;85.49
69171;BME280;56279;47.902;12.308;2023-04-08T05:01:29;95496.75;;;5.75;85.40
69171;BME280;56279;47.902;12.308;2023-04-08T05:03:31;95499.94;;;5.77;85.67
69171;BME280;56279;47.902;12.308;2023-04-08T05:05:32;95504.16;;;5.78;85.56
69171;BME280;56279;47.902;12.308;2023-04-08T05:07:37;95502.06;;;5.80;85.40
69171;BME280;56279;47.902;12.308;2023-04-08T05:09:38;95502.63;;;5.82;85.71
69171;BME280;56279;47.902;12.308;2023-04-08T05:11:40;95506.28;;;5.81;85.40
69171;BME280;56279;47.902;12.308;2023-04-08T05:13:44;95506.28;;;5.81;85.20
69171;BME280;56279;47.902;12.308;2023-04-08T05:15:46;95503.13;;;5.79;85.48
69171;BME280;56279;47.902;12.308;2023-04-08T05:17:48;95504.06;;;5.73;85.54
69171;BME280;56279;47.902;12.308;2023-04-08T05:19:52;95505.34;;;5.70;85.48
69171;BME280;56279;47.902;12.308;2023-04-08T05:21:57;95506.63;;;5.68;85.73
69171;BME280;56279;47.902;12.308;2023-04-08T05:23:59;95500.84;;;5.66;85.80
69171;BME280;56279;47.902;12.308;2023-04-08T05:26:00;95505.06;;;5.67;85.92
69171;BME280;56279;47.902;12.308;2023-04-08T05:28:02;95508.22;;;5.69;85.63
69171;BME280;56279;47.902;12.308;2023-04-08T05:30:05;95512.97;;;5.72;85.82
69171;BME280;56279;47.902;12.308;2023-04-08T05:32:08;95509.31;;;5.73;85.58
69171;BME280;56279;47.902;12.308;2023-04-08T05:34:10;95513.03;;;5.77;85.54
69171;BME280;56279;47.902;12.308;2023-04-08T05:36:12;95512.00;;;5.78;85.36
69171;BME280;56279;47.902;12.308;2023-04-08T05:38:15;95514.91;;;5.81;85.36
69171;BME280;56279;47.902;12.308;2023-04-08T05:40:16;95514.47;;;5.84;85.13
69171;BME280;56279;47.902;12.308;2023-04-08T05:42:20;95516.88;;;5.86;85.34
69171;BME280;56279;47.902;12.308;2023-04-08T05:44:24;95518.44;;;5.87;85.26
69171;BME280;56279;47.902;12.308;2023-04-08T05:46:25;95519.47;;;5.86;85.31
69171;BME280;56279;47.902;12.308;2023-04-08T05:48:26;95517.09;;;5.84;85.53
69171;BME280;56279;47.902;12.308;2023-04-08T05:50:28;95517.09;;;5.84;85.01
69171;BME280;56279;47.902;12.308;2023-04-08T05:52:30;95522.88;;;5.86;85.59
69171;BME280;56279;47.902;12.308;2023-04-08T05:54:31;95520.56;;;5.90;85.45
69171;BME280;56279;47.902;12.308;2023-04-08T05:56:33;95521.13;;;5.92;85.38
69171;BME280;56279;47.902;12.308;2023-04-08T05:58:34;95522.47;;;5.94;85.67
69171;BME280;56279;47.902;12.308;2023-04-08T06:00:36;95522.75;;;5.98;85.13
69171;BME280;56279;47.902;12.308;2023-04-08T06:02:37;95527.53;;;6.01;85.23
69171;BME280;56279;47.902;12.308;2023-04-08T06:04:38;95524.44;;;6.04;85.54
69171;BME280;56279;47.902;12.308;2023-04-08T06:06:40;95524.50;;;6.09;85.59
69171;BME280;56279;47.902;12.308;2023-04-08T06:08:43;95526.13;;;6.15;85.25
69171;BME280;56279;47.902;12.308;2023-04-08T06:10:50;95525.09;;;6.16;85.38
69171;BME280;56279;47.902;12.308;2023-04-08T06:12:51;95530.63;;;6.19;85.52
69171;BME280;56279;47.902;12.308;2023-04-08T06:14:58;95529.03;;;6.18;85.03
69171;BME280;56279;47.902;12.308;2023-04-08T06:16:59;95533.00;;;6.21;85.20
69171;BME280;56279;47.902;12.308;2023-04-08T06:19:01;95529.34;;;6.22;85.40
69171;BME280;56279;47.902;12.308;2023-04-08T06:21:02;95526.00;;;6.26;85.37
69171;BME280;56279;47.902;12.308;2023-04-08T06:23:04;95534.19;;;6.30;85.15
69171;BME280;56279;47.902;12.308;2023-04-08T06:25:06;95523.13;;;6.28;85.36
69171;BME280;56279;47.902;12.308;2023-04-08T06:27:07;95522.84;;;6.24;85.39
69171;BME280;56279;47.902;12.308;2023-04-08T06:29:10;95529.91;;;6.24;85.73
69171;BME280;56279;47.902;12.308;2023-04-08T06:31:11;95532.03;;;6.27;85.65
69171;BME280;56279;47.902;12.308;2023-04-08T06:33:13;95523.94;;;6.28;85.64
69171;BME280;56279;47.902;12.308;2023-04-08T06:35:17;95527.88;;;6.31;85.48
69171;BME280;56279;47.902;12.308;2023-04-08T06:37:23;95536.28;;;6.33;85.20
69171;BME280;56279;47.902;12.308;2023-04-08T06:39:25;95529.78;;;6.36;85.68
69171;BME280;56279;47.902;12.308;2023-04-08T06:41:27;95531.38;;;6.37;85.68
69171;BME280;56279;47.902;12.308;2023-04-08T06:43:35;95534.75;;;6.37;85.78
69171;BME280;56279;47.902;12.308;2023-04-08T06:45:38;95531.13;;;6.38;85.48
69171;BME280;56279;47.902;12.308;2023-04-08T06:47:41;95540.25;;;6.36;86.00
69171;BME280;56279;47.902;12.308;2023-04-08T06:49:43;95542.59;;;6.32;86.31
69171;BME280;56279;47.902;12.308;2023-04-08T06:51:49;95539.91;;;6.27;86.20
69171;BME280;56279;47.902;12.308;2023-04-08T06:53:51;95536.19;;;6.23;86.40
69171;BME280;56279;47.902;12.308;2023-04-08T06:55:54;95537.47;;;6.20;86.51
69171;BME280;56279;47.902;12.308;2023-04-08T06:57:56;95547.97;;;6.20;87.15
69171;BME280;56279;47.902;12.308;2023-04-08T06:59:57;95542.72;;;6.20;87.12
69171;BME280;56279;47.902;12.308;2023-04-08T07:02:00;95542.94;;;6.19;87.03
69171;BME280;56279;47.902;12.308;2023-04-08T07:04:01;95548.44;;;6.17;86.97
69171;BME280;56279;47.902;12.308;2023-04-08T07:06:04;95546.34;;;6.19;86.96
69171;BME280;56279;47.902;12.308;2023-04-08T07:08:08;95544.75;;;6.18;87.23
69171;BME280;56279;47.902;12.308;2023-04-08T07:10:09;95546.84;;;6.16;87.38
69171;BME280;56279;47.902;12.308;2023-04-08T07:12:11;95553.31;;;6.09;87.75
69171;BME280;56279;47.902;12.308;2023-04-08T07:14:12;95548.56;;;6.06;87.78
69171;BME280;56279;47.902;12.308;2023-04-08T07:16:15;95549.34;;;6.06;88.09
69171;BME280;56279;47.902;12.308;2023-04-08T07:18:21;95549.28;;;6.01;88.08
69171;BME280;56279;47.902;12.308;2023-04-08T07:20:23;95555.78;;;5.99;88.24
69171;BME280;56279;47.902;12.308;2023-04-08T07:22:29;95556.25;;;5.96;88.80
69171;BME280;56279;47.902;12.308;2023-04-08T07:24:32;95555.47;;;5.95;88.98
69171;BME280;56279;47.902;12.308;2023-04-08T07:26:34;95549.47;;;5.95;89.04
69171;BME280;56279;47.902;12.308;2023-04-08T07:28:37;95554.69;;;5.95;89.07
69171;BME280;56279;47.902;12.308;2023-04-08T07:30:40;95558.09;;;5.95;89.08
69171;BME280;56279;47.902;12.308;2023-04-08T07:32:43;95556.25;;;5.96;88.83
69171;BME280;56279;47.902;12.308;2023-04-08T07:34:44;95562.78;;;5.93;89.08
69171;BME280;56279;47.902;12.308;2023-04-08T07:36:46;95559.34;;;5.93;89.01
69171;BME280;56279;47.902;12.308;2023-04-08T07:38:48;95560.41;;;5.92;89.07
69171;BME280;56279;47.902;12.308;2023-04-08T07:40:49;95561.22;;;5.92;89.17
69171;BME280;56279;47.902;12.308;2023-04-08T07:42:52;95563.56;;;5.94;89.21
69171;BME280;56279;47.902;12.308;2023-04-08T07:44:57;95570.34;;;5.90;89.22
69171;BME280;56279;47.902;12.308;2023-04-08T07:46:58;95567.16;;;5.88;89.25
69171;BME280;56279;47.902;12.308;2023-04-08T07:49:00;95572.09;;;5.84;88.96
69171;BME280;56279;47.902;12.308;2023-04-08T07:51:04;95569.25;;;5.86;88.96
69171;BME280;56279;47.902;12.308;2023-04-08T07:53:07;95571.34;;;5.89;88.70
69171;BME280;56279;47.902;12.308;2023-04-08T07:55:10;95568.81;;;5.94;88.94
69171;BME280;56279;47.902;12.308;2023-04-08T07:57:11;95574.13;;;5.99;88.25
69171;BME280;56279;47.902;12.308;2023-04-08T07:59:13;95569.19;;;6.02;88.20
69171;BME280;56279;47.902;12.308;2023-04-08T08:01:21;95569.75;;;6.04;87.88
69171;BME280;56279;47.902;12.308;2023-04-08T08:03:23;95574.28;;;6.09;88.22
69171;BME280;56279;47.902;12.308;2023-04-08T08:05:25;95572.19;;;6.11;86.80
69171;BME280;56279;47.902;12.308;2023-04-08T08:07:28;95573.53;;;6.13;87.14
69171;BME280;56279;47.902;12.308;2023-04-08T08:09:30;95575.38;;;6.13;86.86
69171;BME280;56279;47.902;12.308;2023-04-08T08:11:32;95579.25;;;6.10;86.76
69171;BME280;56279;47.902;12.308;2023-04-08T08:13:34;95575.28;;;6.08;87.00
69171;BME280;56279;47.902;12.308;2023-04-08T08:15:37;95580.88;;;5.95;86.12
69171;BME280;56279;47.902;12.308;2023-04-08T08:17:39;95584.84;;;5.81;86.87
69171;BME280;56279;47.902;12.308;2023-04-08T08:19:40;95584.13;;;5.69;86.88
69171;BME280;56279;47.902;12.308;2023-04-08T08:21:41;95580.88;;;5.62;86.95
69171;BME280;56279;47.902;12.308;2023-04-08T08:23:42;95585.25;;;5.56;86.63
69171;BME280;56279;47.902;12.308;2023-04-08T08:25:44;95587.56;;;5.52;86.53
69171;BME280;56279;47.902;12.308;2023-04-08T08:27:46;95584.84;;;5.47;86.64
69171;BME280;56279;47.902;12.308;2023-04-08T08:29:47;95588.19;;;5.43;86.32
69171;BME280;56279;47.902;12.308;2023-04-08T08:31:50;95585.56;;;5.43;86.49
69171;BME280;56279;47.902;12.308;2023-04-08T08:33:52;95586.13;;;5.45;86.62
69171;BME280;56279;47.902;12.308;2023-04-08T08:35:55;95584.38;;;5.50;86.20
69171;BME280;56279;47.902;12.308;2023-04-08T08:37:59;95599.59;;;5.53;85.69
69171;BME280;56279;47.902;12.308;2023-04-08T08:40:02;95596.91;;;5.48;85.29
69171;BME280;56279;47.902;12.308;2023-04-08T08:42:03;95595.72;;;5.39;85.46
69171;BME280;56279;47.902;12.308;2023-04-08T08:44:05;95598.03;;;5.36;85.63
69171;BME280;56279;47.902;12.308;2023-04-08T08:46:09;95598.72;;;5.31;85.47
69171;BME280;56279;47.902;12.308;2023-04-08T08:48:12;95607.03;;;5.28;85.53
69171;BME280;56279;47.902;12.308;2023-04-08T08:50:13;95612.53;;;5.27;85.72
69171;BME280;56279;47.902;12.308;2023-04-08T08:52:15;95613.53;;;5.26;85.74
69171;BME280;56279;47.902;12.308;2023-04-08T08:54:19;95613.53;;;5.26;85.67
69171;BME280;56279;47.902;12.308;2023-04-08T08:56:21;95623.53;;;5.29;85.93
69171;BME280;56279;47.902;12.308;2023-04-08T08:58:26;95617.03;;;5.31;85.54
69171;BME280;56279;47.902;12.308;2023-04-08T09:00:38;95618.16;;;5.35;85.50
69171;BME280;56279;47.902;12.308;2023-04-08T09:02:39;95617.69;;;5.38;85.66
69171;BME280;56279;47.902;12.308;2023-04-08T09:04:55;95626.41;;;5.44;85.82
69171;BME280;56279;47.902;12.308;2023-04-08T09:07:10;95624.38;;;5.46;85.90
69171;BME280;56279;47.902;12.308;2023-04-08T09:09:13;95629.09;;;5.49;85.68
69171;BME280;56279;47.902;12.308;2023-04-08T09:11:17;95634.03;;;5.45;85.55
69171;BME280;56279;47.902;12.308;2023-04-08T09:13:21;95638.13;;;5.41;85.63
69171;BME280;56279;47.902;12.308;2023-04-08T09:15:23;95630.28;;;5.41;85.79
69171;BME280;56279;47.902;12.308;2023-04-08T09:17:35;95628.72;;;5.40;85.76
69171;BME280;56279;47.902;12.308;2023-04-08T09:19:37;95625.84;;;5.42;85.53
69171;BME280;56279;47.902;12.308;2023-04-08T09:21:38;95630.88;;;5.43;85.68
69171;BME280;56279;47.902;12.308;2023-04-08T09:23:47;95635.06;;;5.44;85.81
69171;BME280;56279;47.902;12.308;2023-04-08T09:25:49;95636.66;;;5.45;85.52
69171;BME280;56279;47.902;12.308;2023-04-08T09:27:51;95634.59;;;5.47;85.58
69171;BME280;56279;47.902;12.308;2023-04-08T09:30:12;95635.13;;;5.49;85.54
69171;BME280;56279;47.902;12.308;2023-04-08T09:32:13;95638.31;;;5.51;85.51
69171;BME280;56279;47.902;12.308;2023-04-08T09:34:15;95629.28;;;5.59;85.41
69171;BME280;56279;47.902;12.308;2023-04-08T09:36:17;95630.38;;;5.63;85.32
69171;BME280;56279;47.902;12.308;2023-04-08T09:38:24;95641.50;;;5.70;85.30
69171;BME280;56279;47.902;12.308;2023-04-08T09:40:26;95631.34;;;5.74;85.14
69171;BME280;56279;47.902;12.308;2023-04-08T09:42:27;95634.81;;;5.79;85.23
69171;BME280;56279;47.902;12.308;2023-04-08T09:44:31;95635.72;;;5.85;84.93
69171;BME280;56279;47.902;12.308;2023-04-08T09:46:50;95636.91;;;5.94;84.81
69171;BME280;56279;47.902;12.308;2023-04-08T09:49:09;95634.38;;;5.99;85.08
69171;BME280;56279;47.902;12.308;2023-04-08T09:51:14;95641.03;;;6.06;84.69
69171;BME280;56279;47.902;12.308;2023-04-08T09:53:35;95643.16;;;6.09;84.77
69171;BME280;56279;47.902;12.308;2023-04-08T09:55:39;95638.16;;;6.08;84.54
69171;BME280;56279;47.902;12.308;2023-04-08T09:58:07;95644.13;;;6.03;84.55
69171;BME280;56279;47.902;12.308;2023-04-08T10:00:15;95647.47;;;5.99;84.61
69171;BME280;56279;47.902;12.308;2023-04-08T10:02:24;95653.44;;;5.94;84.95
69171;BME280;56279;47.902;12.308;2023-04-08T10:04:37;95650.25;;;5.92;84.43
69171;BME280;56279;47.902;12.308;2023-04-08T10:06:40;95642.16;;;5.94;84.97
69171;BME280;56279;47.902;12.308;2023-04-08T10:08:42;95651.59;;;5.95;84.29
69171;BME280;56279;47.902;12.308;2023-04-08T10:10:44;95657.63;;;5.95;84.35
69171;BME280;56279;47.902;12.308;2023-04-08T10:12:47;95657.22;;;6.03;84.23
69171;BME280;56279;47.902;12.308;2023-04-08T10:15:24;95650.47;;;6.07;84.27
69171;BME280;56279;47.902;12.308;2023-04-08T10:17:26;95649.75;;;6.12;84.52
69171;BME280;56279;47.902;12.308;2023-04-08T10:19:39;95654.97;;;6.12;84.38
69171;BME280;56279;47.902;12.308;2023-04-08T10:21:41;95654.50;;;6.15;84.05
69171;BME280;56279;47.902;12.308;2023-04-08T10:23:55;95652.91;;;6.14;84.31
69171;BME280;56279;47.902;12.308;2023-04-08T10:25:59;95653.25;;;6.17;83.95
69171;BME280;56279;47.902;12.308;2023-04-08T10:32:39;95658.00;;;6.20;84.53
69171;BME280;56279;47.902;12.308;2023-04-08T10:34:50;95656.41;;;6.19;84.16
69171;BME280;56279;47.902;12.308;2023-04-08T10:36:54;95651.72;;;6.21;84.58
69171;BME280;56279;47.902;12.308;2023-04-08T10:38:56;95649.66;;;6.23;84.25
69171;BME280;56279;47.902;12.308;2023-04-08T10:40:58;95651.53;;;6.28;84.18
69171;BME280;56279;47.902;12.308;2023-04-08T10:42:59;95647.09;;;6.28;84.58
69171;BME280;56279;47.902;12.308;2023-04-08T10:45:04;95651.00;;;6.26;84.47
69171;BME280;56279;47.902;12.308;2023-04-08T10:47:05;95653.88;;;6.24;84.32
69171;BME280;56279;47.902;12.308;2023-04-08T10:49:08;95651.25;;;6.24;84.98
69171;BME280;56279;47.902;12.308;2023-04-08T10:51:09;95649.41;;;6.25;84.64
69171;BME280;56279;47.902;12.308;2023-04-08T10:53:11;95649.97;;;6.27;84.67
69171;BME280;56279;47.902;12.308;2023-04-08T10:55:13;95643.69;;;6.28;84.40
69171;BME280;56279;47.902;12.308;2023-04-08T10:57:15;95648.91;;;6.28;84.78
69171;BME280;56279;47.902;12.308;2023-04-08T10:59:26;95646.28;;;6.28;84.79
69171;BME280;56279;47.902;12.308;2023-04-08T11:01:37;95643.38;;;6.24;84.14
69171;BME280;56279;47.902;12.308;2023-04-08T11:03:41;95647.28;;;6.22;84.39